Time;durP1;ratioP1;P1;durP2;ratioP2;P2;SDS_P1;SDS_P2;PMS_P1;PMS_P2;Temp;Humidity;BMP_temperature;BMP_pressure;BME280_temperature;BME280_humidity;BME280_pressure;Samples;Min_cycle;Max_cycle;Signal;HPM_P1;HPM_P2
2024/01/09 00:00:13;;;;;;;16.30;4.70;;;;;;;-12.20;58.99;101698.26;1741319;82;21082;-66
2024/01/09 00:02:41;;;;;;;11.10;4.00;;;;;;;-12.22;59.52;101696.09;1741254;82;21463;-66
2024/01/09 00:05:10;;;;;;;11.35;4.22;;;;;;;-12.23;60.02;101710.19;1741490;82;21043;-66
2024/01/09 00:07:39;;;;;;;14.35;4.60;;;;;;;-12.28;60.47;101706.73;1715955;83;21510;-65
2024/01/09 00:10:08;;;;;;;10.53;4.37;;;;;;;-12.34;60.93;101710.78;1741294;82;21110;-65
2024/01/09 00:12:37;;;;;;;13.58;4.55;;;;;;;-12.37;61.36;101714.30;1736255;82;21099;-66
2024/01/09 00:15:07;;;;;;;16.52;5.03;;;;;;;-12.45;61.74;101714.86;1741223;82;21047;-65
2024/01/09 00:17:36;;;;;;;15.65;4.55;;;;;;;-12.51;61.97;101717.58;1741290;82;21057;-64
2024/01/09 00:20:06;;;;;;;14.43;4.97;;;;;;;-12.51;62.10;101722.41;1741325;82;21055;-65
2024/01/09 00:22:35;;;;;;;13.78;4.58;;;;;;;-12.54;62.17;101723.77;1741418;82;21027;-66
2024/01/09 00:25:06;;;;;;;10.32;3.77;;;;;;;-12.59;62.21;101735.28;1736427;83;21291;-66
2024/01/09 00:27:35;;;;;;;14.80;4.15;;;;;;;-12.64;62.31;101731.38;1721284;82;21122;-66
2024/01/09 00:30:04;;;;;;;14.18;4.40;;;;;;;-12.67;62.44;101739.34;1741441;82;21043;-65
2024/01/09 00:32:33;;;;;;;16.25;4.40;;;;;;;-12.67;62.50;101739.34;1736275;82;21549;-65
2024/01/09 00:35:03;;;;;;;10.63;3.90;;;;;;;-12.68;62.41;101734.95;1741500;82;21043;-65
2024/01/09 00:37:32;;;;;;;11.55;4.22;;;;;;;-12.73;62.39;101754.38;1741320;82;21501;-65
2024/01/09 00:40:00;;;;;;;10.65;3.77;;;;;;;-12.77;62.46;101754.86;1736323;83;21024;-66
2024/01/09 00:42:29;;;;;;;10.65;3.67;;;;;;;-12.83;62.45;101749.64;1741385;82;21000;-65
2024/01/09 00:45:00;;;;;;;10.40;3.62;;;;;;;-12.86;62.48;101752.32;1736460;82;21026;-64
2024/01/09 00:47:29;;;;;;;8.95;3.60;;;;;;;-12.89;62.49;101749.72;1741288;82;21440;-66
2024/01/09 00:49:59;;;;;;;10.15;3.65;;;;;;;-12.92;62.55;101757.66;1741242;82;20999;-65
2024/01/09 00:52:28;;;;;;;10.30;3.60;;;;;;;-12.99;62.50;101743.67;1728735;82;21047;-67
2024/01/09 00:54:58;;;;;;;15.28;4.72;;;;;;;-13.03;62.52;101731.81;1695424;82;21039;-66
2024/01/09 00:57:26;;;;;;;12.10;4.28;;;;;;;-13.06;62.58;101730.53;1723568;83;21051;-65
2024/01/09 00:59:54;;;;;;;11.05;3.95;;;;;;;-13.06;62.61;101741.08;1723569;83;21511;-66
2024/01/09 01:02:23;;;;;;;12.78;3.80;;;;;;;-13.09;62.56;101743.30;1723566;82;21091;-66
2024/01/09 01:04:52;;;;;;;10.55;3.35;;;;;;;-13.12;62.57;101744.20;1723660;83;21094;-66
2024/01/09 01:07:21;;;;;;;7.72;3.20;;;;;;;-13.10;62.43;101753.42;1723789;83;21011;-65
2024/01/09 01:09:50;;;;;;;10.23;3.72;;;;;;;-13.16;62.34;101751.72;1723806;82;21067;-65
2024/01/09 01:12:19;;;;;;;9.53;2.80;;;;;;;-13.19;62.34;101747.83;1723738;83;21035;-65
2024/01/09 01:14:47;;;;;;;8.80;2.92;;;;;;;-13.21;62.34;101754.88;1723570;83;21073;-65
2024/01/09 01:17:17;;;;;;;9.13;2.92;;;;;;;-13.23;62.33;101748.75;1723581;83;21031;-66
2024/01/09 01:19:45;;;;;;;10.08;3.60;;;;;;;-13.23;62.29;101754.02;1723756;83;21031;-65
2024/01/09 01:22:14;;;;;;;10.90;3.92;;;;;;;-13.24;62.26;101754.91;1723693;82;21106;-66
2024/01/09 01:24:42;;;;;;;14.50;4.22;;;;;;;-13.24;62.25;101757.55;1723640;82;21082;-66
2024/01/09 01:27:11;;;;;;;10.88;3.55;;;;;;;-13.26;62.20;101761.96;1723578;82;21483;-65
2024/01/09 01:29:40;;;;;;;7.83;3.23;;;;;;;-13.26;62.24;101759.33;1723779;83;21063;-65
2024/01/09 01:32:10;;;;;;;16.05;4.75;;;;;;;-13.23;62.23;101757.11;1695749;83;21021;-65
2024/01/09 01:34:39;;;;;;;16.00;5.42;;;;;;;-13.23;62.13;101769.84;1723741;82;21058;-66
2024/01/09 01:37:08;;;;;;;22.13;6.33;;;;;;;-13.25;62.08;101766.34;1723703;83;21079;-65
2024/01/09 01:39:36;;;;;;;19.35;6.22;;;;;;;-13.27;62.06;101764.17;1723585;83;21031;-65
2024/01/09 01:42:05;;;;;;;19.35;6.05;;;;;;;-13.26;61.97;101760.64;1723791;82;21020;-65
2024/01/09 01:44:34;;;;;;;16.17;4.97;;;;;;;-13.32;61.87;101763.78;1723726;83;21031;-67
2024/01/09 01:47:03;;;;;;;16.12;4.70;;;;;;;-13.37;61.88;101755.92;1695582;83;21074;-66
2024/01/09 01:49:32;;;;;;;12.95;4.50;;;;;;;-13.34;61.99;101753.25;1672854;83;21055;-66
2024/01/09 01:52:00;;;;;;;11.80;4.40;;;;;;;-13.31;61.94;101754.98;1721565;83;21051;-64
2024/01/09 01:54:29;;;;;;;15.98;4.20;;;;;;;-13.29;61.87;101766.39;1716280;83;21035;-65
2024/01/09 01:56:57;;;;;;;11.63;4.03;;;;;;;-13.29;61.86;101768.59;1716078;82;21075;-65
2024/01/09 01:59:25;;;;;;;20.30;5.12;;;;;;;-13.29;61.72;101771.22;1741181;82;21031;-66
2024/01/09 02:01:54;;;;;;;17.17;5.42;;;;;;;-13.29;61.66;101772.54;1736503;83;21028;-66
2024/01/09 02:04:22;;;;;;;15.13;4.78;;;;;;;-13.26;61.63;101770.32;1741264;82;21230;-65
2024/01/09 02:06:51;;;;;;;18.35;5.53;;;;;;;-13.26;61.41;101769.88;1741324;82;21051;-65
2024/01/09 02:09:20;;;;;;;19.82;5.85;;;;;;;-13.32;61.29;101780.47;1736532;83;21087;-65
2024/01/09 02:11:49;;;;;;;19.52;5.72;;;;;;;-13.32;61.38;101775.20;1741233;82;21031;-65
2024/01/09 02:14:18;;;;;;;22.73;5.67;;;;;;;-13.27;61.26;101775.16;1741263;82;21052;-66
2024/01/09 02:16:47;;;;;;;18.50;5.78;;;;;;;-13.27;61.13;101776.48;1736462;82;21103;-65
2024/01/09 02:19:15;;;;;;;18.48;5.33;;;;;;;-13.28;60.99;101769.02;1741537;82;21052;-66
2024/01/09 02:21:44;;;;;;;18.75;4.95;;;;;;;-13.27;60.81;101775.16;1736323;83;21056;-66
2024/01/09 02:24:12;;;;;;;19.87;4.90;;;;;;;-13.28;60.62;101774.73;1720750;82;21075;-66
2024/01/09 02:26:46;;;;;;;17.35;5.03;;;;;;;-13.30;60.51;101777.83;1736271;82;21024;-66
2024/01/09 02:29:20;;;;;;;20.20;5.37;;;;;;;-13.30;60.49;101777.83;1738230;82;21061;-65
2024/01/09 02:31:48;;;;;;;16.53;4.70;;;;;;;-13.25;60.39;101777.34;1736236;83;21048;-66
2024/01/09 02:34:17;;;;;;;14.75;5.15;;;;;;;-13.22;60.15;101763.69;1741466;82;21047;-64
2024/01/09 02:36:46;;;;;;;17.87;5.12;;;;;;;-13.21;59.76;101769.38;1741479;82;21098;-66
2024/01/09 02:39:14;;;;;;;20.13;5.83;;;;;;;-13.22;59.68;101775.55;1736545;82;21076;-65
2024/01/09 02:41:45;;;;;;;14.07;4.78;;;;;;;-13.19;59.55;101775.52;1741466;82;21056;-65
2024/01/09 02:44:14;;;;;;;19.75;5.83;;;;;;;-13.16;59.18;101775.90;1736599;82;21044;-66
2024/01/09 02:46:43;;;;;;;20.87;5.73;;;;;;;-13.13;59.02;101777.19;1741654;82;21028;-65
2024/01/09 02:49:12;;;;;;;16.37;5.62;;;;;;;-13.09;58.76;101772.31;1741437;82;21032;-65
2024/01/09 02:51:40;;;;;;;23.73;6.95;;;;;;;-13.09;58.50;101766.17;1741381;82;21012;-66
2024/01/09 02:54:09;;;;;;;27.00;6.65;;;;;;;-13.08;58.35;101765.27;1741548;82;21019;-65
2024/01/09 02:56:37;;;;;;;23.87;6.22;;;;;;;-13.06;58.14;101770.09;1741346;82;21123;-65
2024/01/09 02:59:07;;;;;;;21.80;6.30;;;;;;;-13.10;57.80;101762.66;1741340;82;21056;-65
2024/01/09 03:01:36;;;;;;;25.92;6.72;;;;;;;-13.18;57.71;101761.45;1741498;82;21083;-65
2024/01/09 03:04:05;;;;;;;22.48;6.55;;;;;;;-13.20;57.66;101771.58;1736498;82;21064;-64
2024/01/09 03:06:34;;;;;;;24.70;6.53;;;;;;;-13.21;57.84;101765.43;1741399;82;21023;-65
2024/01/09 03:09:03;;;;;;;20.05;6.87;;;;;;;-13.14;57.81;101763.58;1736522;83;21293;-65
2024/01/09 03:11:31;;;;;;;21.65;6.92;;;;;;;-13.15;57.45;101760.51;1741468;82;21047;-65
2024/01/09 03:14:00;;;;;;;19.45;5.62;;;;;;;-13.17;57.48;101759.23;1736334;83;21048;-65
2024/01/09 03:16:28;;;;;;;16.35;5.30;;;;;;;-13.14;57.41;101767.09;1741504;82;21035;-65
2024/01/09 03:18:57;;;;;;;15.38;5.25;;;;;;;-13.14;57.29;101765.77;1736453;83;21031;-65
2024/01/09 03:21:25;;;;;;;20.85;6.22;;;;;;;-13.14;57.31;101768.84;1741427;82;20976;-66
2024/01/09 03:23:54;;;;;;;26.62;6.33;;;;;;;-13.14;57.32;101769.72;1736479;82;21331;-66
2024/01/09 03:26:22;;;;;;;26.07;6.97;;;;;;;-13.12;57.29;101765.31;1741256;82;21032;-65
2024/01/09 03:28:51;;;;;;;25.43;8.13;;;;;;;-13.09;57.27;101768.36;1736449;82;21012;-67
2024/01/09 03:31:23;;;;;;;38.17;9.23;;;;;;;-13.06;57.30;101767.45;1741463;82;21028;-65
2024/01/09 03:33:52;;;;;;;38.58;9.78;;;;;;;-13.04;57.18;101770.50;1741362;82;21094;-66
2024/01/09 03:36:20;;;;;;;29.12;8.40;;;;;;;-13.04;57.06;101771.83;1736384;83;21051;-65
2024/01/09 03:38:50;;;;;;;37.13;9.10;;;;;;;-12.99;56.98;101777.08;1741269;82;21492;-65
2024/01/09 03:41:26;;;;;;;27.55;8.05;;;;;;;-12.97;56.79;101767.39;1736533;82;20996;-66
2024/01/09 03:43:55;;;;;;;28.12;7.12;;;;;;;-13.01;56.58;101765.64;1741597;82;21086;-65
2024/01/09 03:46:23;;;;;;;25.62;7.87;;;;;;;-12.98;56.49;101769.16;1741364;82;21059;-65
2024/01/09 03:48:51;;;;;;;24.02;7.12;;;;;;;-12.98;56.33;101762.56;1736386;83;21027;-65
2024/01/09 03:51:20;;;;;;;26.20;6.80;;;;;;;-12.97;56.26;101773.98;1741272;82;21421;-66
2024/01/09 03:53:48;;;;;;;18.27;5.90;;;;;;;-12.95;56.19;101770.89;1720598;82;21075;-65
2024/01/09 03:56:17;;;;;;;21.97;5.70;;;;;;;-12.93;56.16;101772.62;1746742;82;21090;-66
2024/01/09 03:58:46;;;;;;;21.82;6.97;;;;;;;-12.90;56.08;101765.98;1713723;84;21551;-65
2024/01/09 04:01:14;;;;;;;18.82;5.90;;;;;;;-12.89;55.95;101765.55;1747036;82;21066;-64
2024/01/09 04:03:43;;;;;;;18.40;5.35;;;;;;;-12.87;55.94;101758.48;1747010;82;21035;-65
2024/01/09 04:06:12;;;;;;;22.22;5.50;;;;;;;-12.85;55.98;101769.45;1747005;82;21055;-65
2024/01/09 04:08:40;;;;;;;14.63;5.22;;;;;;;-12.82;55.97;101765.91;1713534;84;21072;-65
2024/01/09 04:11:09;;;;;;;17.12;5.05;;;;;;;-12.80;55.92;101770.72;1746865;82;21031;-66
2024/01/09 04:13:38;;;;;;;22.25;5.58;;;;;;;-12.82;55.86;101785.70;1695511;84;21518;-65
2024/01/09 04:16:12;;;;;;;23.67;5.65;;;;;;;-12.83;55.77;101779.55;1746785;82;21490;-66
2024/01/09 04:18:41;;;;;;;16.73;6.53;;;;;;;-12.82;55.82;101774.69;1746799;82;21452;-65
2024/01/09 04:21:10;;;;;;;18.90;6.70;;;;;;;-12.82;55.83;101773.82;1713934;84;21212;-65
2024/01/09 04:23:38;;;;;;;24.82;7.08;;;;;;;-12.78;55.92;101774.66;1746878;82;21023;-65
2024/01/09 04:26:06;;;;;;;25.72;7.65;;;;;;;-12.73;55.98;101779.44;1746816;82;21059;-66
2024/01/09 04:28:35;;;;;;;27.45;6.70;;;;;;;-12.70;56.08;101776.77;1746779;82;21019;-66
2024/01/09 04:31:04;;;;;;;27.25;6.03;;;;;;;-12.65;56.25;101774.50;1747156;82;20992;-65
2024/01/09 04:33:33;;;;;;;22.85;6.12;;;;;;;-12.63;56.18;101776.67;1746990;82;21035;-64
2024/01/09 04:36:01;;;;;;;24.15;6.83;;;;;;;-12.60;56.33;101774.45;1718278;82;21496;-64
2024/01/09 04:38:30;;;;;;;21.52;7.17;;;;;;;-12.56;56.33;101768.23;1746994;82;21019;-66
2024/01/09 04:41:00;;;;;;;17.90;5.87;;;;;;;-12.55;56.29;101762.07;1718017;82;21047;-66
2024/01/09 04:43:29;;;;;;;27.62;6.35;;;;;;;-12.54;56.37;101765.13;1746793;82;21004;-65
2024/01/09 04:45:58;;;;;;;20.77;6.20;;;;;;;-12.52;56.44;101760.27;1713531;83;21492;-66
2024/01/09 04:48:26;;;;;;;15.28;4.65;;;;;;;-12.46;56.59;101765.05;1746994;82;21024;-66
2024/01/09 04:50:55;;;;;;;21.87;6.85;;;;;;;-12.41;56.69;101764.53;1747137;82;21031;-65
2024/01/09 04:53:24;;;;;;;20.00;5.75;;;;;;;-12.38;56.76;101764.50;1723005;81;21615;-65
2024/01/09 04:55:53;;;;;;;13.60;4.83;;;;;;;-12.34;56.89;101762.28;1747048;82;21043;-65
2024/01/09 04:58:21;;;;;;;20.55;5.55;;;;;;;-12.30;56.95;101760.02;1760025;81;21054;-64
2024/01/09 05:00:50;;;;;;;25.77;5.60;;;;;;;-12.27;56.96;101754.70;1747011;82;21007;-66
2024/01/09 05:03:19;;;;;;;20.45;6.67;;;;;;;-12.24;57.04;101755.53;1760030;81;21067;-65
2024/01/09 05:05:47;;;;;;;19.05;5.55;;;;;;;-12.20;57.06;101761.64;1747053;82;21049;-65
2024/01/09 05:08:16;;;;;;;17.82;5.37;;;;;;;-12.20;57.15;101766.92;1728841;81;21090;-66
2024/01/09 05:10:44;;;;;;;23.10;6.80;;;;;;;-12.20;57.32;101757.68;1746920;82;21055;-66
2024/01/09 05:13:13;;;;;;;27.25;7.47;;;;;;;-12.17;57.53;101758.96;1720360;82;21080;-65
2024/01/09 05:15:42;;;;;;;23.77;7.25;;;;;;;-12.12;57.75;101758.90;1749250;82;21031;-65
2024/01/09 05:18:10;;;;;;;20.57;6.28;;;;;;;-12.06;57.96;101757.48;1749120;82;21057;-66
2024/01/09 05:20:39;;;;;;;24.27;6.58;;;;;;;-12.02;58.13;101757.88;1749343;82;21035;-66
2024/01/09 05:23:08;;;;;;;26.82;6.37;;;;;;;-11.95;58.30;101757.76;1760037;81;21035;-65
2024/01/09 05:25:36;;;;;;;20.92;5.75;;;;;;;-11.88;58.38;101747.52;1759973;81;21078;-67
2024/01/09 05:28:05;;;;;;;15.68;5.92;;;;;;;-11.84;58.42;101752.31;1746774;82;21122;-66
2024/01/09 05:30:34;;;;;;;23.70;6.17;;;;;;;-11.81;58.41;101751.39;1749380;82;21043;-66
2024/01/09 05:33:04;;;;;;;11.30;4.53;;;;;;;-11.79;58.45;101751.80;1749238;82;21060;-67
2024/01/09 05:35:33;;;;;;;22.20;5.62;;;;;;;-11.76;58.56;101757.00;1749098;82;21086;-66
2024/01/09 05:38:02;;;;;;;23.95;5.72;;;;;;;-11.70;58.55;101763.99;1759937;81;21047;-67
2024/01/09 05:40:33;;;;;;;18.05;5.60;;;;;;;-11.65;58.51;101766.11;1746377;82;21043;-66
2024/01/09 05:43:01;;;;;;;15.25;5.03;;;;;;;-11.62;58.54;101766.94;1728967;81;20991;-65
2024/01/09 05:45:30;;;;;;;15.35;5.35;;;;;;;-11.57;58.57;101771.70;1746994;82;21048;-66
2024/01/09 05:47:59;;;;;;;16.62;4.45;;;;;;;-11.55;58.40;101768.59;1760101;81;21022;-67
2024/01/09 05:50:27;;;;;;;12.55;4.00;;;;;;;-11.53;58.30;101769.44;1759968;81;21105;-67
2024/01/09 05:52:56;;;;;;;11.65;4.10;;;;;;;-11.52;58.20;101763.70;1745591;82;21022;-67
2024/01/09 05:55:25;;;;;;;12.45;3.92;;;;;;;-11.52;58.20;101763.25;1741164;82;21788;-66
2024/01/09 05:57:53;;;;;;;18.98;5.17;;;;;;;-11.47;58.16;101765.82;1741443;82;21024;-66
2024/01/09 06:00:22;;;;;;;28.55;8.88;;;;;;;-11.45;58.07;101766.67;1736456;83;21063;-66
2024/01/09 06:02:51;;;;;;;20.88;5.55;;;;;;;-11.42;58.04;101767.06;1741454;82;21094;-66
2024/01/09 06:05:20;;;;;;;15.68;5.40;;;;;;;-11.39;58.08;101770.98;1697123;82;21055;-66
2024/01/09 06:07:49;;;;;;;16.65;5.15;;;;;;;-11.39;57.90;101773.17;1741413;82;21064;-66
2024/01/09 06:10:18;;;;;;;15.90;5.22;;;;;;;-11.39;57.89;101779.79;1741351;82;21015;-65
2024/01/09 06:12:46;;;;;;;15.15;4.50;;;;;;;-11.39;57.84;101777.14;1741346;82;21024;-65
2024/01/09 06:15:16;;;;;;;19.75;5.30;;;;;;;-11.39;57.89;101779.79;1736320;83;21076;-65
2024/01/09 06:17:44;;;;;;;14.85;3.85;;;;;;;-11.38;57.92;101782.86;1720851;82;21319;-65
2024/01/09 06:20:13;;;;;;;13.28;4.45;;;;;;;-11.35;57.62;101785.90;1736223;82;21492;-65
2024/01/09 06:22:42;;;;;;;13.75;3.83;;;;;;;-11.39;57.66;101790.81;1741473;82;21561;-65
2024/01/09 06:25:13;;;;;;;18.07;4.35;;;;;;;-11.39;57.74;101793.02;1736527;83;21385;-66
2024/01/09 06:27:43;;;;;;;15.65;5.03;;;;;;;-11.38;57.69;101792.11;1741363;82;21542;-66
2024/01/09 06:30:14;;;;;;;28.90;6.10;;;;;;;-11.39;57.66;101792.14;1741391;82;21086;-66
2024/01/09 06:32:43;;;;;;;14.63;4.47;;;;;;;-11.36;57.75;101790.77;1741385;82;21063;-66
2024/01/09 06:35:11;;;;;;;17.55;5.67;;;;;;;-11.34;57.78;101786.33;1741432;82;21016;-66
2024/01/09 06:37:42;;;;;;;26.23;6.90;;;;;;;-11.35;57.79;101791.19;1716047;83;21059;-65
2024/01/09 06:40:11;;;;;;;18.67;5.62;;;;;;;-11.34;57.84;101799.09;1697583;82;21040;-65
2024/01/09 06:42:39;;;;;;;12.88;4.92;;;;;;;-11.32;57.96;101795.11;1736349;83;21028;-66
2024/01/09 06:45:09;;;;;;;18.62;5.92;;;;;;;-11.33;58.09;101794.23;1741256;82;21055;-66
2024/01/09 06:47:38;;;;;;;19.50;5.92;;;;;;;-11.31;58.33;101796.41;1741370;82;21454;-65
2024/01/09 06:50:08;;;;;;;19.62;6.15;;;;;;;-11.25;58.47;101798.07;1741157;82;21012;-66
2024/01/09 06:52:38;;;;;;;22.05;6.12;;;;;;;-11.18;58.69;101800.16;1736705;81;21029;-66
2024/01/09 06:55:08;;;;;;;25.30;6.17;;;;;;;-11.13;59.01;101808.45;1720878;81;21052;-67
2024/01/09 06:57:37;;;;;;;20.62;5.92;;;;;;;-11.09;59.26;101796.03;1751917;82;21459;-65
2024/01/09 07:00:07;;;;;;;24.45;5.55;;;;;;;-11.06;59.52;101801.27;1718789;83;21023;-65
2024/01/09 07:02:36;;;;;;;14.98;4.97;;;;;;;-11.04;59.85;101803.02;1751998;82;21063;-66
2024/01/09 07:05:08;;;;;;;17.40;5.47;;;;;;;-11.02;60.22;101808.29;1718573;83;21056;-65
2024/01/09 07:07:37;;;;;;;15.28;5.00;;;;;;;-11.02;60.69;101809.61;1752103;82;21438;-66
2024/01/09 07:10:09;;;;;;;14.53;5.20;;;;;;;-10.98;60.99;101812.63;1719135;83;21011;-65
2024/01/09 07:12:37;;;;;;;16.70;5.65;;;;;;;-10.94;61.29;101813.00;1751956;82;21056;-65
2024/01/09 07:15:08;;;;;;;13.70;5.28;;;;;;;-10.92;61.60;101805.45;1700841;83;21032;-64
2024/01/09 07:17:37;;;;;;;22.55;5.47;;;;;;;-10.89;62.03;101815.98;1751923;82;21094;-66
2024/01/09 07:20:08;;;;;;;19.98;6.00;;;;;;;-10.85;62.42;101819.91;1700840;83;21076;-65
2024/01/09 07:22:36;;;;;;;15.43;5.92;;;;;;;-10.79;62.87;101817.14;1752286;82;21027;-65
2024/01/09 07:25:06;;;;;;;18.55;5.67;;;;;;;-10.74;63.11;101816.61;1700626;83;21071;-66
2024/01/09 07:27:35;;;;;;;19.15;6.40;;;;;;;-10.67;63.42;101824.86;1752137;82;21466;-66
2024/01/09 07:30:04;;;;;;;21.75;6.00;;;;;;;-10.61;63.69;101826.94;1718838;83;21052;-66
2024/01/09 07:32:33;;;;;;;16.70;5.65;;;;;;;-10.54;63.99;101826.83;1752265;82;21059;-66
2024/01/09 07:35:04;;;;;;;15.80;5.58;;;;;;;-10.50;64.31;101832.48;1700820;83;21149;-66
2024/01/09 07:37:32;;;;;;;20.90;6.58;;;;;;;-10.48;64.62;101832.00;1752304;82;20996;-66
2024/01/09 07:40:03;;;;;;;20.05;6.72;;;;;;;-10.44;64.87;101838.98;1718996;83;21103;-66
2024/01/09 07:42:32;;;;;;;20.77;7.05;;;;;;;-10.41;65.10;101834.95;1752280;82;21035;-66
2024/01/09 07:45:03;;;;;;;26.27;7.62;;;;;;;-10.37;65.29;101836.22;1719263;82;21056;-64
2024/01/09 07:47:34;;;;;;;28.92;8.43;;;;;;;-10.34;65.49;101830.86;1752284;82;21015;-67
2024/01/09 07:50:03;;;;;;;26.93;8.05;;;;;;;-10.32;65.81;101837.00;1718976;83;20996;-66
2024/01/09 07:52:33;;;;;;;29.05;9.43;;;;;;;-10.28;66.07;101843.11;1751989;82;21137;-67
2024/01/09 07:55:01;;;;;;;23.52;8.53;;;;;;;-10.24;66.41;101838.17;1715998;81;21043;-66
2024/01/09 07:57:30;;;;;;;26.95;8.70;;;;;;;-10.19;66.78;101837.59;1736160;82;21488;-66
2024/01/09 08:00:00;;;;;;;29.48;9.80;;;;;;;-10.14;67.38;101840.14;1741204;82;21051;-67
2024/01/09 08:02:32;;;;;;;33.48;10.88;;;;;;;-10.11;67.82;101840.95;1735285;82;21072;-66
2024/01/09 08:05:02;;;;;;;32.25;10.35;;;;;;;-10.06;68.25;101829.80;1741435;82;21039;-67
2024/01/09 08:07:31;;;;;;;34.27;10.30;;;;;;;-9.98;68.79;101835.81;1741261;82;21472;-66
2024/01/09 08:10:00;;;;;;;31.45;10.32;;;;;;;-9.88;69.26;101839.14;1721140;82;21063;-67
2024/01/09 08:12:29;;;;;;;28.92;8.63;;;;;;;-9.80;69.87;101848.26;1736162;83;21048;-66
2024/01/09 08:14:58;;;;;;;28.50;9.30;;;;;;;-9.74;70.84;101851.68;1741461;82;21467;-67
2024/01/09 08:17:27;;;;;;;20.08;7.92;;;;;;;-9.71;71.33;101850.74;1716211;83;21123;-67
2024/01/09 08:19:56;;;;;;;30.27;7.53;;;;;;;-9.65;71.92;101858.56;1741455;82;21055;-66
2024/01/09 08:22:25;;;;;;;25.00;6.90;;;;;;;-9.61;72.81;101856.26;1736277;83;21068;-73
2024/01/09 08:24:53;;;;;;;23.15;7.72;;;;;;;-9.60;73.21;101858.00;1741409;82;21091;-66
2024/01/09 08:27:22;;;;;;;22.17;7.53;;;;;;;-9.55;73.78;101853.47;1736439;82;21021;-66
2024/01/09 08:29:51;;;;;;;21.07;6.58;;;;;;;-9.52;74.26;101852.07;1721097;82;21460;-65
2024/01/09 08:32:22;;;;;;;22.22;7.30;;;;;;;-9.49;75.06;101859.09;1715970;83;21456;-67
2024/01/09 08:34:51;;;;;;;20.95;8.48;;;;;;;-9.50;75.38;101856.89;1721293;82;21043;-65
2024/01/09 08:37:20;;;;;;;23.18;7.62;;;;;;;-9.44;75.78;101859.40;1741195;82;21036;-67
2024/01/09 08:39:49;;;;;;;26.87;8.75;;;;;;;-9.37;76.10;101859.68;1741301;82;21070;-66
2024/01/09 08:42:17;;;;;;;24.43;8.23;;;;;;;-9.33;76.41;101857.37;1693997;83;21140;-66
2024/01/09 08:44:46;;;;;;;25.00;7.97;;;;;;;-9.29;76.67;101860.83;1741340;82;21027;-66
2024/01/09 08:47:15;;;;;;;23.73;7.20;;;;;;;-9.24;76.96;101859.39;1741573;82;21059;-65
2024/01/09 08:49:45;;;;;;;22.95;7.55;;;;;;;-9.20;77.22;101860.61;1721013;82;21031;-66
2024/01/09 08:52:14;;;;;;;17.75;6.53;;;;;;;-9.18;77.36;101863.22;1720960;82;21052;-66
2024/01/09 08:54:43;;;;;;;22.98;8.80;;;;;;;-9.16;77.60;101868.91;1741508;82;21055;-66
2024/01/09 08:57:11;;;;;;;20.70;6.60;;;;;;;-9.09;77.85;101874.98;1720793;81;21553;-66
2024/01/09 08:59:40;;;;;;;22.32;8.68;;;;;;;-9.04;78.10;101865.99;1723390;82;21090;-67
2024/01/09 09:02:09;;;;;;;30.80;9.28;;;;;;;-8.99;78.33;101864.55;1678006;83;21083;-66
2024/01/09 09:04:38;;;;;;;19.75;7.35;;;;;;;-8.95;78.53;101863.56;1752012;82;21467;-67
2024/01/09 09:07:07;;;;;;;25.15;6.90;;;;;;;-8.93;78.74;101876.34;1718749;82;21012;-66
2024/01/09 09:09:36;;;;;;;19.05;6.80;;;;;;;-8.89;78.92;101875.81;1718037;82;21530;-65
2024/01/09 09:12:05;;;;;;;27.00;8.00;;;;;;;-8.88;79.07;101862.50;1718452;82;21473;-66
2024/01/09 09:14:33;;;;;;;18.67;6.42;;;;;;;-8.86;79.20;101863.33;1736773;82;21028;-67
2024/01/09 09:17:03;;;;;;;20.45;8.15;;;;;;;-8.85;79.29;101866.86;1718351;82;21072;-67
2024/01/09 09:19:31;;;;;;;21.00;7.35;;;;;;;-8.87;79.48;101866.90;1736686;82;21062;-68
2024/01/09 09:22:03;;;;;;;19.17;6.70;;;;;;;-8.85;79.76;101865.53;1736533;81;21496;-66
2024/01/09 09:24:33;;;;;;;21.52;8.03;;;;;;;-8.82;80.09;101865.00;1737030;82;21021;-66
2024/01/09 09:27:02;;;;;;;24.90;7.72;;;;;;;-8.80;80.33;101863.17;1736775;82;21049;-66
2024/01/09 09:29:31;;;;;;;18.15;6.53;;;;;;;-8.76;80.45;101859.98;1718302;82;21044;-68
2024/01/09 09:32:02;;;;;;;26.42;8.38;;;;;;;-8.76;80.51;101851.56;1737076;81;21052;-67
2024/01/09 09:34:32;;;;;;;22.42;8.38;;;;;;;-8.78;80.54;101851.19;1736821;82;21530;-66
2024/01/09 09:37:03;;;;;;;24.20;8.70;;;;;;;-8.75;80.80;101853.77;1736700;82;21064;-65
2024/01/09 09:39:32;;;;;;;27.25;9.15;;;;;;;-8.70;81.06;101849.20;1736580;82;21119;-67
2024/01/09 09:42:01;;;;;;;25.37;9.18;;;;;;;-8.64;81.29;101851.70;1736588;82;21468;-67
2024/01/09 09:44:29;;;;;;;24.02;7.97;;;;;;;-8.61;81.43;101861.38;1719706;80;21037;-66
2024/01/09 09:46:59;;;;;;;35.15;10.72;;;;;;;-8.58;81.79;101865.27;1764464;80;21057;-66
2024/01/09 09:49:28;;;;;;;34.08;11.53;;;;;;;-8.61;81.89;101862.24;1775172;80;21015;-67
2024/01/09 09:51:57;;;;;;;29.70;11.73;;;;;;;-8.62;82.15;101864.94;1782491;80;20989;-67
2024/01/09 09:54:26;;;;;;;35.28;13.90;;;;;;;-8.64;82.46;101857.88;1751897;82;21048;-67
2024/01/09 09:56:54;;;;;;;38.70;13.25;;;;;;;-8.61;82.75;101858.72;1765969;81;21033;-66
2024/01/09 09:59:25;;;;;;;34.27;11.35;;;;;;;-8.55;83.10;101864.73;1773325;81;21069;-66
2024/01/09 10:01:56;;;;;;;25.77;9.38;;;;;;;-8.47;83.34;101859.22;1782711;80;21180;-69
2024/01/09 10:04:31;;;;;;;27.85;9.18;;;;;;;-8.41;83.54;101859.95;1777487;81;21049;-67
2024/01/09 10:07:00;;;;;;;23.55;8.63;;;;;;;-8.37;83.83;101857.63;1776904;80;21503;-67
2024/01/09 10:09:32;;;;;;;23.32;7.28;;;;;;;-8.33;84.02;101857.09;1788341;80;21032;-67
2024/01/09 10:12:00;;;;;;;20.48;7.97;;;;;;;-8.29;84.15;101857.84;1747526;81;21092;-67
2024/01/09 10:14:30;;;;;;;17.65;7.17;;;;;;;-8.23;84.29;101863.86;1777325;81;21469;-66
2024/01/09 10:17:03;;;;;;;18.23;6.70;;;;;;;-8.17;84.43;101862.36;1788212;80;21013;-66
2024/01/09 10:19:31;;;;;;;23.27;8.15;;;;;;;-8.16;84.46;101842.83;1719359;82;21094;-68
2024/01/09 10:22:00;;;;;;;23.25;7.58;;;;;;;-8.13;84.51;101847.19;1687235;84;21099;-68
2024/01/09 10:24:29;;;;;;;19.80;6.80;;;;;;;-8.11;84.58;101847.56;1691971;84;21500;-68
2024/01/09 10:26:58;;;;;;;15.00;6.37;;;;;;;-8.05;84.75;101839.86;1706839;83;21467;-68
2024/01/09 10:29:27;;;;;;;26.97;8.28;;;;;;;-8.05;84.78;101838.08;1691954;84;21071;-69
2024/01/09 10:31:57;;;;;;;23.80;7.67;;;;;;;-8.01;84.93;101838.86;1687267;84;21123;-68
2024/01/09 10:34:28;;;;;;;32.83;10.25;;;;;;;-7.96;85.00;101836.06;1711516;84;21074;-68
2024/01/09 10:37:08;;;;;;;26.90;8.53;;;;;;;-7.94;85.04;101842.21;1706631;84;21115;-68
2024/01/09 10:39:37;;;;;;;20.12;8.38;;;;;;;-7.92;85.09;101845.70;1711584;84;21110;-75
2024/01/09 10:42:10;;;;;;;19.90;7.47;;;;;;;-7.89;85.36;101828.31;1642679;85;21537;-69
2024/01/09 10:44:40;;;;;;;13.22;5.67;;;;;;;-7.81;85.50;101835.61;1711354;84;21103;-68
2024/01/09 10:47:10;;;;;;;18.37;6.55;;;;;;;-7.76;85.54;101831.05;1706920;84;21444;-68
2024/01/09 10:49:40;;;;;;;15.00;6.30;;;;;;;-7.69;85.61;101829.95;1711555;84;21483;-69
2024/01/09 10:52:17;;;;;;;17.70;7.40;;;;;;;-7.66;85.51;101825.87;1704853;81;21021;-67
2024/01/09 10:54:45;;;;;;;17.75;7.67;;;;;;;-7.66;85.46;101823.20;1788368;80;21114;-70
2024/01/09 10:57:17;;;;;;;26.25;9.55;;;;;;;-7.64;85.52;101828.02;1777211;81;21177;-69
2024/01/09 10:59:46;;;;;;;23.07;9.25;;;;;;;-7.58;85.60;101820.31;1788248;80;21076;-68
2024/01/09 11:02:16;;;;;;;29.25;9.35;;;;;;;-7.57;85.54;101816.27;1788563;80;21825;-68
2024/01/09 11:04:46;;;;;;;25.57;8.98;;;;;;;-7.55;85.62;101821.08;1777496;81;21076;-68
2024/01/09 11:07:16;;;;;;;28.00;9.30;;;;;;;-7.49;85.70;101822.22;1788362;80;21087;-69
2024/01/09 11:09:46;;;;;;;26.68;9.90;;;;;;;-7.44;85.83;101821.61;1777201;81;21096;-68
2024/01/09 11:12:34;;;;;;;29.60;10.48;;;;;;;-7.37;85.89;101821.83;1788267;80;21060;-68
2024/01/09 11:15:20;;;;;;;32.35;11.33;;;;;;;-7.35;85.85;101825.77;1788531;80;21025;-68
2024/01/09 11:17:54;;;;;;;34.08;11.25;;;;;;;-7.33;85.94;101824.39;1788118;80;21072;-68
2024/01/09 11:20:23;;;;;;;30.12;12.23;;;;;;;-7.29;86.02;101822.05;1788503;80;21005;-68